sensor_id;sensor_type;location;lat;lon;timestamp;P1;durP1;ratioP1;P2;durP2;ratioP2
12896;SDS011;6516;35.028;32.372;2023-05-07T00:00:01;9.88;;;5.05;;
12896;SDS011;6516;35.028;32.372;2023-05-07T00:02:32;9.38;;;4.68;;
12896;SDS011;6516;35.028;32.372;2023-05-07T00:05:00;11.77;;;4.30;;
12896;SDS011;6516;35.028;32.372;2023-05-07T00:07:28;7.38;;;4.40;;
12896;SDS011;6516;35.028;32.372;2023-05-07T00:09:56;9.43;;;4.85;;
12896;SDS011;6516;35.028;32.372;2023-05-07T00:12:24;10.10;;;4.88;;
12896;SDS011;6516;35.028;32.372;2023-05-07T00:14:52;10.85;;;4.20;;
12896;SDS011;6516;35.028;32.372;2023-05-07T00:17:21;11.93;;;4.83;;
12896;SDS011;6516;35.028;32.372;2023-05-07T00:19:49;10.10;;;5.25;;
12896;SDS011;6516;35.028;32.372;2023-05-07T00:22:17;16.08;;;5.32;;
12896;SDS011;6516;35.028;32.372;2023-05-07T00:24:44;16.10;;;5.85;;
12896;SDS011;6516;35.028;32.372;2023-05-07T00:27:12;16.83;;;6.00;;
12896;SDS011;6516;35.028;32.372;2023-05-07T00:29:40;14.50;;;5.60;;
12896;SDS011;6516;35.028;32.372;2023-05-07T00:32:08;13.00;;;5.40;;
12896;SDS011;6516;35.028;32.372;2023-05-07T00:34:37;14.90;;;5.75;;
12896;SDS011;6516;35.028;32.372;2023-05-07T00:37:05;13.25;;;5.03;;
12896;SDS011;6516;35.028;32.372;2023-05-07T00:39:34;11.98;;;5.05;;
12896;SDS011;6516;35.028;32.372;2023-05-07T00:42:02;15.00;;;6.00;;
12896;SDS011;6516;35.028;32.372;2023-05-07T00:44:30;19.40;;;5.70;;
12896;SDS011;6516;35.028;32.372;2023-05-07T00:46:58;15.48;;;5.93;;
12896;SDS011;6516;35.028;32.372;2023-05-07T00:49:32;14.00;;;5.65;;
12896;SDS011;6516;35.028;32.372;2023-05-07T00:52:08;18.27;;;5.65;;
12896;SDS011;6516;35.028;32.372;2023-05-07T00:54:38;17.47;;;5.77;;
12896;SDS011;6516;35.028;32.372;2023-05-07T00:57:08;12.63;;;5.78;;
12896;SDS011;6516;35.028;32.372;2023-05-07T00:59:37;12.40;;;5.43;;
12896;SDS011;6516;35.028;32.372;2023-05-07T01:02:06;14.55;;;5.75;;
12896;SDS011;6516;35.028;32.372;2023-05-07T01:04:34;12.75;;;6.10;;
12896;SDS011;6516;35.028;32.372;2023-05-07T01:07:03;14.53;;;5.60;;
12896;SDS011;6516;35.028;32.372;2023-05-07T01:09:32;16.10;;;5.32;;
12896;SDS011;6516;35.028;32.372;2023-05-07T01:12:01;20.20;;;6.30;;
12896;SDS011;6516;35.028;32.372;2023-05-07T01:14:30;15.32;;;5.57;;
12896;SDS011;6516;35.028;32.372;2023-05-07T01:16:58;14.88;;;5.72;;
12896;SDS011;6516;35.028;32.372;2023-05-07T01:19:26;15.60;;;5.53;;
12896;SDS011;6516;35.028;32.372;2023-05-07T01:21:59;12.43;;;5.40;;
12896;SDS011;6516;35.028;32.372;2023-05-07T01:24:37;11.52;;;5.47;;
12896;SDS011;6516;35.028;32.372;2023-05-07T01:27:05;12.98;;;5.45;;
12896;SDS011;6516;35.028;32.372;2023-05-07T01:29:33;14.73;;;5.78;;
12896;SDS011;6516;35.028;32.372;2023-05-07T01:32:01;13.50;;;5.43;;
12896;SDS011;6516;35.028;32.372;2023-05-07T01:34:31;13.65;;;4.90;;
12896;SDS011;6516;35.028;32.372;2023-05-07T01:37:02;16.48;;;5.25;;
12896;SDS011;6516;35.028;32.372;2023-05-07T01:39:30;11.65;;;5.30;;
12896;SDS011;6516;35.028;32.372;2023-05-07T01:42:00;14.10;;;5.28;;
12896;SDS011;6516;35.028;32.372;2023-05-07T01:44:28;15.17;;;5.27;;
12896;SDS011;6516;35.028;32.372;2023-05-07T01:46:56;12.35;;;5.32;;
12896;SDS011;6516;35.028;32.372;2023-05-07T01:49:25;11.45;;;4.78;;
12896;SDS011;6516;35.028;32.372;2023-05-07T01:51:53;15.07;;;5.10;;
12896;SDS011;6516;35.028;32.372;2023-05-07T01:54:24;10.93;;;4.93;;
12896;SDS011;6516;35.028;32.372;2023-05-07T01:56:54;10.83;;;4.90;;
12896;SDS011;6516;35.028;32.372;2023-05-07T01:59:25;18.35;;;5.40;;
12896;SDS011;6516;35.028;32.372;2023-05-07T02:01:53;9.23;;;5.00;;
12896;SDS011;6516;35.028;32.372;2023-05-07T02:04:20;10.65;;;5.10;;
12896;SDS011;6516;35.028;32.372;2023-05-07T02:06:48;11.95;;;4.85;;
12896;SDS011;6516;35.028;32.372;2023-05-07T02:09:16;11.43;;;4.67;;
12896;SDS011;6516;35.028;32.372;2023-05-07T02:11:44;8.55;;;4.30;;
12896;SDS011;6516;35.028;32.372;2023-05-07T02:14:11;10.63;;;4.50;;
12896;SDS011;6516;35.028;32.372;2023-05-07T02:16:40;12.07;;;5.20;;
12896;SDS011;6516;35.028;32.372;2023-05-07T02:19:08;11.43;;;5.10;;
12896;SDS011;6516;35.028;32.372;2023-05-07T02:21:36;11.17;;;4.47;;
12896;SDS011;6516;35.028;32.372;2023-05-07T02:24:04;9.98;;;4.72;;
12896;SDS011;6516;35.028;32.372;2023-05-07T02:26:32;14.05;;;5.05;;
12896;SDS011;6516;35.028;32.372;2023-05-07T02:29:00;13.70;;;4.78;;
12896;SDS011;6516;35.028;32.372;2023-05-07T02:31:28;13.48;;;4.45;;
12896;SDS011;6516;35.028;32.372;2023-05-07T02:33:57;9.07;;;4.40;;
12896;SDS011;6516;35.028;32.372;2023-05-07T02:36:25;14.07;;;4.70;;
12896;SDS011;6516;35.028;32.372;2023-05-07T02:38:53;16.35;;;4.75;;
12896;SDS011;6516;35.028;32.372;2023-05-07T02:41:21;12.88;;;4.78;;
12896;SDS011;6516;35.028;32.372;2023-05-07T02:43:49;16.88;;;4.72;;
12896;SDS011;6516;35.028;32.372;2023-05-07T02:46:16;8.60;;;3.80;;
12896;SDS011;6516;35.028;32.372;2023-05-07T02:48:44;11.82;;;4.43;;
12896;SDS011;6516;35.028;32.372;2023-05-07T02:51:13;13.15;;;4.80;;
12896;SDS011;6516;35.028;32.372;2023-05-07T02:53:43;14.32;;;5.30;;
12896;SDS011;6516;35.028;32.372;2023-05-07T02:56:11;10.88;;;4.20;;
12896;SDS011;6516;35.028;32.372;2023-05-07T02:58:39;12.40;;;4.50;;
12896;SDS011;6516;35.028;32.372;2023-05-07T03:01:07;11.70;;;4.78;;
12896;SDS011;6516;35.028;32.372;2023-05-07T03:03:35;10.35;;;4.63;;
12896;SDS011;6516;35.028;32.372;2023-05-07T03:06:03;9.98;;;4.60;;
12896;SDS011;6516;35.028;32.372;2023-05-07T03:08:33;10.57;;;4.32;;
12896;SDS011;6516;35.028;32.372;2023-05-07T03:11:01;11.43;;;4.47;;
12896;SDS011;6516;35.028;32.372;2023-05-07T03:13:29;13.23;;;5.05;;
12896;SDS011;6516;35.028;32.372;2023-05-07T03:15:57;14.80;;;4.75;;
12896;SDS011;6516;35.028;32.372;2023-05-07T03:18:24;12.45;;;4.25;;
12896;SDS011;6516;35.028;32.372;2023-05-07T03:20:52;9.35;;;4.18;;
12896;SDS011;6516;35.028;32.372;2023-05-07T03:23:20;10.53;;;4.10;;
12896;SDS011;6516;35.028;32.372;2023-05-07T03:25:49;9.85;;;4.13;;
12896;SDS011;6516;35.028;32.372;2023-05-07T03:28:17;8.70;;;3.78;;
12896;SDS011;6516;35.028;32.372;2023-05-07T03:30:47;9.77;;;3.83;;
12896;SDS011;6516;35.028;32.372;2023-05-07T03:33:14;9.38;;;4.00;;
12896;SDS011;6516;35.028;32.372;2023-05-07T03:35:42;11.07;;;4.23;;
12896;SDS011;6516;35.028;32.372;2023-05-07T03:38:10;15.98;;;4.60;;
12896;SDS011;6516;35.028;32.372;2023-05-07T03:40:38;10.23;;;4.10;;
12896;SDS011;6516;35.028;32.372;2023-05-07T03:43:08;9.25;;;3.92;;
12896;SDS011;6516;35.028;32.372;2023-05-07T03:45:36;11.10;;;3.90;;
12896;SDS011;6516;35.028;32.372;2023-05-07T03:48:04;12.97;;;3.83;;
12896;SDS011;6516;35.028;32.372;2023-05-07T03:50:31;11.70;;;3.70;;
12896;SDS011;6516;35.028;32.372;2023-05-07T03:52:59;11.77;;;3.83;;
12896;SDS011;6516;35.028;32.372;2023-05-07T03:55:27;11.15;;;4.15;;
12896;SDS011;6516;35.028;32.372;2023-05-07T03:57:55;11.98;;;4.00;;
12896;SDS011;6516;35.028;32.372;2023-05-07T04:00:24;12.83;;;3.70;;
12896;SDS011;6516;35.028;32.372;2023-05-07T04:02:52;11.88;;;3.50;;
12896;SDS011;6516;35.028;32.372;2023-05-07T04:05:20;11.38;;;3.30;;
12896;SDS011;6516;35.028;32.372;2023-05-07T04:07:48;10.05;;;3.58;;
12896;SDS011;6516;35.028;32.372;2023-05-07T04:10:15;14.07;;;3.78;;
12896;SDS011;6516;35.028;32.372;2023-05-07T04:12:43;12.43;;;3.63;;
12896;SDS011;6516;35.028;32.372;2023-05-07T04:15:11;9.32;;;3.58;;
12896;SDS011;6516;35.028;32.372;2023-05-07T04:17:40;11.27;;;3.75;;
12896;SDS011;6516;35.028;32.372;2023-05-07T04:20:08;9.32;;;2.80;;
12896;SDS011;6516;35.028;32.372;2023-05-07T04:22:40;9.38;;;2.60;;
12896;SDS011;6516;35.028;32.372;2023-05-07T04:25:09;9.77;;;2.77;;
12896;SDS011;6516;35.028;32.372;2023-05-07T04:27:37;7.55;;;2.47;;
12896;SDS011;6516;35.028;32.372;2023-05-07T04:30:05;7.63;;;2.38;;
12896;SDS011;6516;35.028;32.372;2023-05-07T04:32:34;7.97;;;2.65;;
12896;SDS011;6516;35.028;32.372;2023-05-07T04:35:04;8.65;;;2.60;;
12896;SDS011;6516;35.028;32.372;2023-05-07T04:37:33;9.33;;;2.63;;
12896;SDS011;6516;35.028;32.372;2023-05-07T04:40:01;6.95;;;2.72;;
12896;SDS011;6516;35.028;32.372;2023-05-07T04:42:29;6.60;;;2.30;;
12896;SDS011;6516;35.028;32.372;2023-05-07T04:44:57;7.45;;;2.40;;
12896;SDS011;6516;35.028;32.372;2023-05-07T04:47:25;7.93;;;2.22;;
12896;SDS011;6516;35.028;32.372;2023-05-07T04:49:53;7.67;;;2.70;;
12896;SDS011;6516;35.028;32.372;2023-05-07T04:52:22;7.20;;;2.55;;
12896;SDS011;6516;35.028;32.372;2023-05-07T04:54:50;5.57;;;2.30;;
12896;SDS011;6516;35.028;32.372;2023-05-07T04:57:17;9.50;;;2.60;;
12896;SDS011;6516;35.028;32.372;2023-05-07T04:59:45;7.53;;;2.33;;
12896;SDS011;6516;35.028;32.372;2023-05-07T05:02:13;5.90;;;2.20;;
12896;SDS011;6516;35.028;32.372;2023-05-07T05:04:42;8.18;;;2.33;;
12896;SDS011;6516;35.028;32.372;2023-05-07T05:07:09;6.38;;;2.13;;
12896;SDS011;6516;35.028;32.372;2023-05-07T05:09:39;8.07;;;2.40;;
12896;SDS011;6516;35.028;32.372;2023-05-07T05:12:07;5.78;;;2.20;;
12896;SDS011;6516;35.028;32.372;2023-05-07T05:14:35;6.03;;;2.20;;
12896;SDS011;6516;35.028;32.372;2023-05-07T05:17:03;8.50;;;2.30;;
12896;SDS011;6516;35.028;32.372;2023-05-07T05:19:31;6.85;;;2.30;;
12896;SDS011;6516;35.028;32.372;2023-05-07T05:21:58;6.50;;;2.40;;
12896;SDS011;6516;35.028;32.372;2023-05-07T05:24:29;7.07;;;2.03;;
12896;SDS011;6516;35.028;32.372;2023-05-07T05:26:58;7.97;;;2.00;;
12896;SDS011;6516;35.028;32.372;2023-05-07T05:29:26;5.00;;;1.90;;
12896;SDS011;6516;35.028;32.372;2023-05-07T05:31:55;4.90;;;2.20;;
12896;SDS011;6516;35.028;32.372;2023-05-07T05:34:23;5.57;;;2.00;;
12896;SDS011;6516;35.028;32.372;2023-05-07T05:36:51;5.55;;;2.00;;
12896;SDS011;6516;35.028;32.372;2023-05-07T05:39:18;6.67;;;2.10;;
12896;SDS011;6516;35.028;32.372;2023-05-07T05:41:46;8.98;;;2.20;;
12896;SDS011;6516;35.028;32.372;2023-05-07T05:44:15;8.43;;;2.20;;
12896;SDS011;6516;35.028;32.372;2023-05-07T05:46:43;7.00;;;2.50;;
12896;SDS011;6516;35.028;32.372;2023-05-07T05:49:11;7.28;;;2.50;;
12896;SDS011;6516;35.028;32.372;2023-05-07T05:51:39;8.43;;;2.47;;
12896;SDS011;6516;35.028;32.372;2023-05-07T05:54:06;8.88;;;2.40;;
12896;SDS011;6516;35.028;32.372;2023-05-07T05:56:34;7.60;;;2.10;;
12896;SDS011;6516;35.028;32.372;2023-05-07T05:59:03;8.23;;;2.30;;
12896;SDS011;6516;35.028;32.372;2023-05-07T06:01:32;7.43;;;2.10;;
12896;SDS011;6516;35.028;32.372;2023-05-07T06:04:00;8.23;;;2.20;;
12896;SDS011;6516;35.028;32.372;2023-05-07T06:06:28;9.00;;;2.42;;
12896;SDS011;6516;35.028;32.372;2023-05-07T06:08:56;9.48;;;2.15;;
12896;SDS011;6516;35.028;32.372;2023-05-07T06:11:24;11.65;;;2.55;;
12896;SDS011;6516;35.028;32.372;2023-05-07T06:13:53;7.40;;;2.10;;
12896;SDS011;6516;35.028;32.372;2023-05-07T06:16:21;6.40;;;2.30;;
12896;SDS011;6516;35.028;32.372;2023-05-07T06:18:50;9.80;;;2.38;;
12896;SDS011;6516;35.028;32.372;2023-05-07T06:21:18;7.50;;;2.55;;
12896;SDS011;6516;35.028;32.372;2023-05-07T06:23:46;7.53;;;2.20;;
12896;SDS011;6516;35.028;32.372;2023-05-07T06:26:13;6.82;;;2.30;;
12896;SDS011;6516;35.028;32.372;2023-05-07T06:28:41;9.27;;;2.30;;
12896;SDS011;6516;35.028;32.372;2023-05-07T06:31:12;7.22;;;2.30;;
12896;SDS011;6516;35.028;32.372;2023-05-07T06:33:42;8.57;;;2.30;;
12896;SDS011;6516;35.028;32.372;2023-05-07T06:36:12;6.85;;;2.35;;
12896;SDS011;6516;35.028;32.372;2023-05-07T06:38:40;8.10;;;2.08;;
12896;SDS011;6516;35.028;32.372;2023-05-07T06:41:08;6.37;;;2.10;;
12896;SDS011;6516;35.028;32.372;2023-05-07T06:43:42;6.40;;;2.25;;
12896;SDS011;6516;35.028;32.372;2023-05-07T06:46:09;6.82;;;2.30;;
12896;SDS011;6516;35.028;32.372;2023-05-07T06:48:37;7.60;;;2.38;;
12896;SDS011;6516;35.028;32.372;2023-05-07T06:51:05;9.13;;;2.63;;
12896;SDS011;6516;35.028;32.372;2023-05-07T06:53:36;8.37;;;2.67;;
12896;SDS011;6516;35.028;32.372;2023-05-07T06:56:04;6.72;;;2.58;;
12896;SDS011;6516;35.028;32.372;2023-05-07T06:58:32;8.98;;;2.50;;
12896;SDS011;6516;35.028;32.372;2023-05-07T07:01:00;11.40;;;3.22;;
12896;SDS011;6516;35.028;32.372;2023-05-07T07:03:28;9.43;;;2.90;;
12896;SDS011;6516;35.028;32.372;2023-05-07T07:05:55;7.97;;;2.37;;
12896;SDS011;6516;35.028;32.372;2023-05-07T07:08:23;9.43;;;2.40;;
12896;SDS011;6516;35.028;32.372;2023-05-07T07:10:52;7.78;;;2.67;;
12896;SDS011;6516;35.028;32.372;2023-05-07T07:13:20;7.28;;;2.83;;
12896;SDS011;6516;35.028;32.372;2023-05-07T07:15:48;10.27;;;2.53;;
12896;SDS011;6516;35.028;32.372;2023-05-07T07:18:16;7.93;;;2.40;;
12896;SDS011;6516;35.028;32.372;2023-05-07T07:20:44;11.02;;;2.80;;
12896;SDS011;6516;35.028;32.372;2023-05-07T07:23:15;9.40;;;3.05;;
12896;SDS011;6516;35.028;32.372;2023-05-07T07:25:42;7.70;;;2.40;;
12896;SDS011;6516;35.028;32.372;2023-05-07T07:28:12;8.68;;;2.65;;
12896;SDS011;6516;35.028;32.372;2023-05-07T07:30:40;7.70;;;2.37;;
12896;SDS011;6516;35.028;32.372;2023-05-07T07:33:08;8.00;;;2.40;;
12896;SDS011;6516;35.028;32.372;2023-05-07T07:35:36;9.30;;;3.00;;
12896;SDS011;6516;35.028;32.372;2023-05-07T07:38:03;7.50;;;2.30;;
12896;SDS011;6516;35.028;32.372;2023-05-07T07:40:31;10.88;;;2.55;;
12896;SDS011;6516;35.028;32.372;2023-05-07T07:43:01;7.83;;;2.77;;
12896;SDS011;6516;35.028;32.372;2023-05-07T07:45:31;9.40;;;2.50;;
12896;SDS011;6516;35.028;32.372;2023-05-07T07:47:59;6.50;;;2.38;;
12896;SDS011;6516;35.028;32.372;2023-05-07T07:50:27;7.63;;;2.55;;
12896;SDS011;6516;35.028;32.372;2023-05-07T07:52:54;11.25;;;2.67;;
12896;SDS011;6516;35.028;32.372;2023-05-07T07:55:22;7.33;;;2.40;;
12896;SDS011;6516;35.028;32.372;2023-05-07T07:57:51;8.98;;;2.70;;
12896;SDS011;6516;35.028;32.372;2023-05-07T08:00:19;8.20;;;2.58;;
12896;SDS011;6516;35.028;32.372;2023-05-07T08:02:48;9.40;;;2.53;;
12896;SDS011;6516;35.028;32.372;2023-05-07T08:05:16;6.50;;;2.30;;
12896;SDS011;6516;35.028;32.372;2023-05-07T08:07:44;9.23;;;2.60;;
12896;SDS011;6516;35.028;32.372;2023-05-07T08:10:17;8.73;;;2.60;;
12896;SDS011;6516;35.028;32.372;2023-05-07T08:12:46;8.73;;;2.70;;
12896;SDS011;6516;35.028;32.372;2023-05-07T08:15:14;7.35;;;2.30;;
12896;SDS011;6516;35.028;32.372;2023-05-07T08:17:42;8.88;;;2.40;;
12896;SDS011;6516;35.028;32.372;2023-05-07T08:20:12;8.20;;;2.57;;
12896;SDS011;6516;35.028;32.372;2023-05-07T08:22:40;7.47;;;2.63;;
12896;SDS011;6516;35.028;32.372;2023-05-07T08:25:08;9.65;;;2.72;;
12896;SDS011;6516;35.028;32.372;2023-05-07T08:27:36;8.05;;;2.53;;
12896;SDS011;6516;35.028;32.372;2023-05-07T08:30:04;10.10;;;2.40;;
12896;SDS011;6516;35.028;32.372;2023-05-07T08:32:33;6.33;;;2.37;;
12896;SDS011;6516;35.028;32.372;2023-05-07T08:35:01;7.68;;;2.63;;
12896;SDS011;6516;35.028;32.372;2023-05-07T08:37:31;6.05;;;2.50;;
12896;SDS011;6516;35.028;32.372;2023-05-07T08:39:59;6.90;;;2.47;;
12896;SDS011;6516;35.028;32.372;2023-05-07T08:42:26;6.95;;;2.22;;
12896;SDS011;6516;35.028;32.372;2023-05-07T08:44:56;6.77;;;2.20;;
12896;SDS011;6516;35.028;32.372;2023-05-07T08:47:28;7.60;;;2.38;;
12896;SDS011;6516;35.028;32.372;2023-05-07T08:50:01;10.90;;;2.40;;
12896;SDS011;6516;35.028;32.372;2023-05-07T08:52:31;8.07;;;2.33;;
12896;SDS011;6516;35.028;32.372;2023-05-07T08:54:59;7.13;;;2.03;;
12896;SDS011;6516;35.028;32.372;2023-05-07T08:57:29;8.00;;;2.10;;
12896;SDS011;6516;35.028;32.372;2023-05-07T08:59:57;7.65;;;2.03;;
12896;SDS011;6516;35.028;32.372;2023-05-07T09:02:25;6.78;;;2.28;;
12896;SDS011;6516;35.028;32.372;2023-05-07T09:04:52;7.18;;;2.10;;
12896;SDS011;6516;35.028;32.372;2023-05-07T09:07:20;7.93;;;2.28;;
12896;SDS011;6516;35.028;32.372;2023-05-07T09:09:50;5.83;;;2.20;;
12896;SDS011;6516;35.028;32.372;2023-05-07T09:12:18;7.13;;;2.05;;
12896;SDS011;6516;35.028;32.372;2023-05-07T09:14:46;6.68;;;1.90;;
12896;SDS011;6516;35.028;32.372;2023-05-07T09:17:15;6.70;;;2.33;;
12896;SDS011;6516;35.028;32.372;2023-05-07T09:19:43;10.32;;;2.95;;
12896;SDS011;6516;35.028;32.372;2023-05-07T09:22:11;7.40;;;2.27;;
12896;SDS011;6516;35.028;32.372;2023-05-07T09:24:39;6.85;;;2.22;;
12896;SDS011;6516;35.028;32.372;2023-05-07T09:27:09;6.55;;;2.00;;
12896;SDS011;6516;35.028;32.372;2023-05-07T09:29:38;6.47;;;1.98;;
12896;SDS011;6516;35.028;32.372;2023-05-07T09:32:07;7.20;;;2.50;;
12896;SDS011;6516;35.028;32.372;2023-05-07T09:34:35;6.37;;;2.53;;
12896;SDS011;6516;35.028;32.372;2023-05-07T09:37:03;7.07;;;2.33;;
12896;SDS011;6516;35.028;32.372;2023-05-07T09:39:39;6.20;;;2.30;;
12896;SDS011;6516;35.028;32.372;2023-05-07T09:42:09;7.47;;;2.13;;
12896;SDS011;6516;35.028;32.372;2023-05-07T09:44:37;8.30;;;2.35;;
12896;SDS011;6516;35.028;32.372;2023-05-07T09:47:06;6.13;;;1.93;;
12896;SDS011;6516;35.028;32.372;2023-05-07T09:49:35;7.78;;;2.50;;
12896;SDS011;6516;35.028;32.372;2023-05-07T09:52:07;5.70;;;2.10;;
12896;SDS011;6516;35.028;32.372;2023-05-07T09:54:35;10.82;;;2.13;;
12896;SDS011;6516;35.028;32.372;2023-05-07T09:57:04;6.70;;;2.10;;
12896;SDS011;6516;35.028;32.372;2023-05-07T09:59:37;7.60;;;2.47;;
12896;SDS011;6516;35.028;32.372;2023-05-07T10:02:05;7.97;;;2.28;;
12896;SDS011;6516;35.028;32.372;2023-05-07T10:04:37;7.32;;;2.40;;
12896;SDS011;6516;35.028;32.372;2023-05-07T10:07:05;8.63;;;2.47;;
12896;SDS011;6516;35.028;32.372;2023-05-07T10:09:35;7.13;;;2.42;;
12896;SDS011;6516;35.028;32.372;2023-05-07T10:12:06;7.10;;;2.40;;
12896;SDS011;6516;35.028;32.372;2023-05-07T10:14:36;7.50;;;2.72;;
12896;SDS011;6516;35.028;32.372;2023-05-07T10:17:04;8.13;;;2.47;;
12896;SDS011;6516;35.028;32.372;2023-05-07T10:19:34;6.80;;;2.45;;
12896;SDS011;6516;35.028;32.372;2023-05-07T10:22:04;6.30;;;2.33;;
12896;SDS011;6516;35.028;32.372;2023-05-07T10:24:33;8.57;;;2.67;;
12896;SDS011;6516;35.028;32.372;2023-05-07T10:27:04;8.40;;;2.65;;
12896;SDS011;6516;35.028;32.372;2023-05-07T10:29:39;11.23;;;3.10;;
12896;SDS011;6516;35.028;32.372;2023-05-07T10:32:27;11.30;;;2.90;;
12896;SDS011;6516;35.028;32.372;2023-05-07T10:35:06;9.68;;;2.95;;
12896;SDS011;6516;35.028;32.372;2023-05-07T10:37:40;7.90;;;2.80;;
12896;SDS011;6516;35.028;32.372;2023-05-07T10:40:09;9.85;;;2.85;;
12896;SDS011;6516;35.028;32.372;2023-05-07T10:42:38;11.90;;;3.10;;
12896;SDS011;6516;35.028;32.372;2023-05-07T10:45:22;11.57;;;3.20;;
12896;SDS011;6516;35.028;32.372;2023-05-07T10:48:07;8.20;;;2.92;;
12896;SDS011;6516;35.028;32.372;2023-05-07T10:50:39;10.60;;;3.03;;
12896;SDS011;6516;35.028;32.372;2023-05-07T10:53:23;11.25;;;3.35;;
12896;SDS011;6516;35.028;32.372;2023-05-07T11:02:11;8.70;;;3.17;;
12896;SDS011;6516;35.028;32.372;2023-05-07T11:04:40;8.40;;;2.63;;
12896;SDS011;6516;35.028;32.372;2023-05-07T11:07:23;9.73;;;3.40;;
12896;SDS011;6516;35.028;32.372;2023-05-07T11:09:57;10.48;;;3.30;;
12896;SDS011;6516;35.028;32.372;2023-05-07T11:15:39;10.80;;;3.45;;
12896;SDS011;6516;35.028;32.372;2023-05-07T11:18:12;10.73;;;3.10;;
12896;SDS011;6516;35.028;32.372;2023-05-07T11:20:44;10.27;;;2.95;;
12896;SDS011;6516;35.028;32.372;2023-05-07T11:26:30;9.95;;;3.38;;
12896;SDS011;6516;35.028;32.372;2023-05-07T11:29:10;9.55;;;2.97;;
12896;SDS011;6516;35.028;32.372;2023-05-07T11:31:39;8.03;;;3.10;;
12896;SDS011;6516;35.028;32.372;2023-05-07T11:34:09;6.97;;;2.88;;
12896;SDS011;6516;35.028;32.372;2023-05-07T11:36:41;9.35;;;3.17;;
12896;SDS011;6516;35.028;32.372;2023-05-07T11:39:25;10.27;;;3.10;;
12896;SDS011;6516;35.028;32.372;2023-05-07T11:41:55;10.95;;;3.05;;
12896;SDS011;6516;35.028;32.372;2023-05-07T11:44:23;7.67;;;2.90;;
12896;SDS011;6516;35.028;32.372;2023-05-07T11:46:51;7.75;;;3.10;;
12896;SDS011;6516;35.028;32.372;2023-05-07T11:49:20;9.80;;;3.40;;
12896;SDS011;6516;35.028;32.372;2023-05-07T11:51:52;8.50;;;3.28;;
12896;SDS011;6516;35.028;32.372;2023-05-07T11:54:20;7.93;;;3.30;;
12896;SDS011;6516;35.028;32.372;2023-05-07T11:56:47;8.03;;;3.27;;
12896;SDS011;6516;35.028;32.372;2023-05-07T11:59:19;11.18;;;3.28;;
12896;SDS011;6516;35.028;32.372;2023-05-07T12:01:47;8.82;;;2.95;;
12896;SDS011;6516;35.028;32.372;2023-05-07T12:04:20;7.40;;;3.53;;
12896;SDS011;6516;35.028;32.372;2023-05-07T12:06:48;11.02;;;3.40;;
12896;SDS011;6516;35.028;32.372;2023-05-07T12:09:16;8.73;;;3.13;;
12896;SDS011;6516;35.028;32.372;2023-05-07T12:11:45;7.20;;;3.15;;
12896;SDS011;6516;35.028;32.372;2023-05-07T12:14:13;9.05;;;3.10;;
12896;SDS011;6516;35.028;32.372;2023-05-07T12:16:42;7.22;;;3.35;;
12896;SDS011;6516;35.028;32.372;2023-05-07T12:19:10;10.82;;;3.00;;
12896;SDS011;6516;35.028;32.372;2023-05-07T12:21:40;7.97;;;3.17;;
12896;SDS011;6516;35.028;32.372;2023-05-07T12:24:08;8.88;;;3.30;;
12896;SDS011;6516;35.028;32.372;2023-05-07T12:26:37;8.57;;;3.00;;
12896;SDS011;6516;35.028;32.372;2023-05-07T12:29:05;8.40;;;3.20;;
12896;SDS011;6516;35.028;32.372;2023-05-07T12:31:33;6.32;;;2.78;;
12896;SDS011;6516;35.028;32.372;2023-05-07T12:34:02;7.70;;;3.07;;
12896;SDS011;6516;35.028;32.372;2023-05-07T12:36:36;8.48;;;2.92;;
12896;SDS011;6516;35.028;32.372;2023-05-07T12:39:06;7.97;;;3.00;;
12896;SDS011;6516;35.028;32.372;2023-05-07T12:44:22;8.02;;;2.90;;
12896;SDS011;6516;35.028;32.372;2023-05-07T12:46:50;7.27;;;3.37;;
12896;SDS011;6516;35.028;32.372;2023-05-07T12:49:17;8.65;;;2.75;;
12896;SDS011;6516;35.028;32.372;2023-05-07T12:51:46;8.00;;;2.70;;
12896;SDS011;6516;35.028;32.372;2023-05-07T12:54:16;8.18;;;2.72;;
12896;SDS011;6516;35.028;32.372;2023-05-07T12:57:00;6.47;;;2.67;;
12896;SDS011;6516;35.028;32.372;2023-05-07T12:59:32;7.63;;;3.00;;
12896;SDS011;6516;35.028;32.372;2023-05-07T13:02:01;10.95;;;3.85;;
12896;SDS011;6516;35.028;32.372;2023-05-07T13:04:29;8.38;;;3.80;;
12896;SDS011;6516;35.028;32.372;2023-05-07T13:06:57;8.82;;;3.50;;
12896;SDS011;6516;35.028;32.372;2023-05-07T13:09:26;11.23;;;3.95;;
12896;SDS011;6516;35.028;32.372;2023-05-07T13:11:54;9.07;;;3.73;;
12896;SDS011;6516;35.028;32.372;2023-05-07T13:14:25;11.15;;;3.88;;
12896;SDS011;6516;35.028;32.372;2023-05-07T13:16:53;12.70;;;3.90;;
12896;SDS011;6516;35.028;32.372;2023-05-07T13:19:20;12.65;;;4.45;;
12896;SDS011;6516;35.028;32.372;2023-05-07T13:21:48;13.27;;;4.35;;
12896;SDS011;6516;35.028;32.372;2023-05-07T13:24:16;9.83;;;4.60;;
12896;SDS011;6516;35.028;32.372;2023-05-07T13:26:45;12.20;;;4.20;;
12896;SDS011;6516;35.028;32.372;2023-05-07T13:29:13;10.48;;;4.45;;
12896;SDS011;6516;35.028;32.372;2023-05-07T13:31:41;10.18;;;4.80;;
12896;SDS011;6516;35.028;32.372;2023-05-07T13:34:09;10.40;;;4.57;;
12896;SDS011;6516;35.028;32.372;2023-05-07T13:36:37;10.83;;;4.40;;
12896;SDS011;6516;35.028;32.372;2023-05-07T13:39:07;10.38;;;4.90;;
12896;SDS011;6516;35.028;32.372;2023-05-07T13:41:34;11.80;;;4.88;;
12896;SDS011;6516;35.028;32.372;2023-05-07T13:44:04;9.50;;;4.60;;
12896;SDS011;6516;35.028;32.372;2023-05-07T13:46:31;10.25;;;4.88;;
12896;SDS011;6516;35.028;32.372;2023-05-07T13:48:59;9.10;;;4.60;;
12896;SDS011;6516;35.028;32.372;2023-05-07T13:51:30;11.60;;;4.80;;
12896;SDS011;6516;35.028;32.372;2023-05-07T13:53:57;9.85;;;5.10;;
12896;SDS011;6516;35.028;32.372;2023-05-07T13:56:26;9.48;;;5.00;;
12896;SDS011;6516;35.028;32.372;2023-05-07T13:58:56;11.02;;;5.28;;
12896;SDS011;6516;35.028;32.372;2023-05-07T14:01:25;11.23;;;5.23;;
12896;SDS011;6516;35.028;32.372;2023-05-07T14:03:54;13.98;;;5.47;;
12896;SDS011;6516;35.028;32.372;2023-05-07T14:06:23;10.52;;;5.18;;
12896;SDS011;6516;35.028;32.372;2023-05-07T14:08:51;11.18;;;5.38;;
12896;SDS011;6516;35.028;32.372;2023-05-07T14:11:18;12.88;;;5.60;;
12896;SDS011;6516;35.028;32.372;2023-05-07T14:13:46;9.47;;;5.20;;
12896;SDS011;6516;35.028;32.372;2023-05-07T14:16:14;12.77;;;5.53;;
12896;SDS011;6516;35.028;32.372;2023-05-07T14:18:43;11.60;;;5.82;;
12896;SDS011;6516;35.028;32.372;2023-05-07T14:21:11;12.02;;;5.63;;
12896;SDS011;6516;35.028;32.372;2023-05-07T14:23:39;12.48;;;5.53;;
12896;SDS011;6516;35.028;32.372;2023-05-07T14:26:07;12.87;;;5.57;;
12896;SDS011;6516;35.028;32.372;2023-05-07T14:28:34;10.15;;;5.68;;
12896;SDS011;6516;35.028;32.372;2023-05-07T14:31:04;12.63;;;6.10;;
12896;SDS011;6516;35.028;32.372;2023-05-07T14:33:32;13.73;;;5.32;;
12896;SDS011;6516;35.028;32.372;2023-05-07T14:36:02;13.02;;;5.95;;
12896;SDS011;6516;35.028;32.372;2023-05-07T14:38:30;12.57;;;5.47;;
12896;SDS011;6516;35.028;32.372;2023-05-07T14:40:58;10.25;;;5.57;;
12896;SDS011;6516;35.028;32.372;2023-05-07T14:43:26;12.82;;;5.78;;
12896;SDS011;6516;35.028;32.372;2023-05-07T14:45:54;13.27;;;6.32;;
12896;SDS011;6516;35.028;32.372;2023-05-07T14:48:21;15.38;;;6.00;;
12896;SDS011;6516;35.028;32.372;2023-05-07T14:50:49;12.13;;;5.60;;
12896;SDS011;6516;35.028;32.372;2023-05-07T14:53:19;12.77;;;6.05;;
12896;SDS011;6516;35.028;32.372;2023-05-07T14:55:47;14.00;;;6.57;;
12896;SDS011;6516;35.028;32.372;2023-05-07T14:58:15;11.18;;;5.57;;
12896;SDS011;6516;35.028;32.372;2023-05-07T15:00:42;15.38;;;6.68;;
12896;SDS011;6516;35.028;32.372;2023-05-07T15:03:10;16.60;;;6.20;;
12896;SDS011;6516;35.028;32.372;2023-05-07T15:05:38;11.35;;;5.90;;
12896;SDS011;6516;35.028;32.372;2023-05-07T15:08:06;13.07;;;6.18;;